Airport View

Enter AWOS ICAO identifier for current METAR.

ex. KFNL

KMAO 170915Z AUTO 36014G19KT 10SM OVC021 06/03 A2997 RMK AO2

17 Nov 2019 09:23

Frequency: 119.875

Phone: 843-423-4231

Other Area AWOS: KFLO - KHYW - KLBT - KCPC

TAF COR KFLO 170558Z 1706/1806 01019G27KT P6SM -RA BKN020 OVC030 FM171000 36017G25KT P6SM BKN025 OVC035 FM171400 36016G23KT P6SM BKN030 OVC040 FM172300 35011G17KT P6SM BKN045